Time,TemperatureF,DewpointF,PressureIn,WindDirection,WindDirectionDegrees,WindSpeedMPH,WindSpeedGustMPH,Humidity,HourlyPrecipIn,Conditions,Clouds,dailyrainin,SoftwareType,DateUTC
2013-05-13 00:00:00,66.6,50.4,29.90,SW,223,0.0,0.0,56,0.00,,---,0.00,VWS V14.01,2013-05-13 04:00:00,
2013-05-13 00:01:00,63.1,53.9,29.96,SE,128,0.0,0.0,72,0.00,,---,0.00,VWS V14.01,2013-05-13 04:01:00,
2013-05-13 00:06:00,62.8,53.3,29.96,SE,128,0.0,0.0,71,0.00,,---,0.00,VWS V14.01,2013-05-13 04:06:00,
2013-05-13 00:11:00,62.6,53.5,29.96,SE,127,0.0,0.0,72,0.00,,---,0.00,VWS V14.01,2013-05-13 04:11:00,
2013-05-13 00:16:00,62.3,53.2,29.96,SE,127,0.0,0.0,72,0.00,,---,0.00,VWS V14.01,2013-05-13 04:16:00,
2013-05-13 00:21:00,62.2,53.1,29.96,SE,127,0.0,0.0,72,0.00,,---,0.00,VWS V14.01,2013-05-13 04:21:00,
2013-05-13 00:26:00,62.1,53.3,29.96,WNW,293,0.0,1.0,73,0.00,,---,0.00,VWS V14.01,2013-05-13 04:26:00,
2013-05-13 00:30:00,67.1,57.0,29.92,WSW,253,0.0,2.0,70,0.00,,---,0.00,VWS V14.01,2013-05-13 04:30:00,
2013-05-13 00:31:00,62.0,53.3,29.96,WNW,294,0.0,0.0,73,0.00,,---,0.00,VWS V14.01,2013-05-13 04:31:00,
2013-05-13 00:36:00,62.0,53.3,29.96,WNW,294,0.0,0.0,73,0.00,,---,0.00,VWS V14.01,2013-05-13 04:36:00,
2013-05-13 00:41:00,62.0,52.9,29.96,WNW,288,0.0,0.0,72,0.00,,---,0.00,VWS V14.01,2013-05-13 04:41:00,
2013-05-13 00:46:00,61.9,53.2,29.96,NNE,26,0.0,0.0,73,0.00,,---,0.00,VWS V14.01,2013-05-13 04:46:00,
2013-05-13 00:51:00,61.8,53.4,29.97,WNW,286,0.0,1.0,74,0.00,,---,0.00,VWS V14.01,2013-05-13 04:51:00,
2013-05-13 00:56:00,61.6,53.2,29.96,SW,222,0.0,1.0,74,0.00,,---,0.00,VWS V14.01,2013-05-13 04:56:00,
2013-05-13 01:00:00,68.2,55.1,29.93,West,275,1.0,4.0,63,0.00,,---,0.00,VWS V14.01,2013-05-13 05:00:00,
2013-05-13 01:01:00,61.5,53.2,29.96,SSW,199,0.0,1.0,74,0.00,,---,0.00,VWS V14.01,2013-05-13 05:01:00,
2013-05-13 01:06:00,61.5,53.2,29.96,SW,223,1.0,1.0,74,0.00,,---,0.00,VWS V14.01,2013-05-13 05:06:00,
2013-05-13 01:11:00,61.4,53.0,29.96,SSE,156,0.0,2.0,74,0.00,,---,0.00,VWS V14.01,2013-05-13 05:11:00,
2013-05-13 01:16:00,61.5,52.8,29.96,WSW,238,1.0,2.0,73,0.00,,---,0.00,VWS V14.01,2013-05-13 05:16:00,
2013-05-13 01:20:00,61.5,52.4,29.96,SW,222,0.0,2.0,72,0.00,,---,0.00,VWS V14.01,2013-05-13 05:20:00,
2013-05-13 01:25:00,61.5,52.4,29.96,WSW,241,0.0,2.0,72,0.00,,---,0.00,VWS V14.01,2013-05-13 05:25:00,
2013-05-13 01:30:00,61.4,52.3,29.96,WSW,253,0.0,0.0,72,0.00,,---,0.00,VWS V14.01,2013-05-13 05:30:00,
2013-05-13 01:35:00,61.4,52.3,29.96,WSW,253,0.0,0.0,72,0.00,,---,0.00,VWS V14.01,2013-05-13 05:35:00,
2013-05-13 01:40:00,61.3,51.8,29.96,SSE,157,0.0,0.0,71,0.00,,---,0.00,VWS V14.01,2013-05-13 05:40:00,
2013-05-13 01:45:00,61.2,52.1,29.96,SW,221,0.0,0.0,72,0.00,,---,0.00,VWS V14.01,2013-05-13 05:45:00,
2013-05-13 01:50:00,61.0,51.9,29.96,SSW,209,0.0,0.0,72,0.00,,---,0.00,VWS V14.01,2013-05-13 05:50:00,
2013-05-13 01:55:00,60.8,52.1,29.96,SSW,209,0.0,0.0,73,0.00,,---,0.00,VWS V14.01,2013-05-13 05:55:00,
2013-05-13 02:00:00,60.5,52.2,29.95,SSW,209,0.0,0.0,74,0.00,,---,0.00,VWS V14.01,2013-05-13 06:00:00,
2013-05-13 02:05:00,60.3,52.0,29.96,SSW,209,0.0,0.0,74,0.00,,---,0.00,VWS V14.01,2013-05-13 06:05:00,
2013-05-13 02:10:00,60.0,52.1,29.96,SSW,209,0.0,0.0,75,0.00,,---,0.00,VWS V14.01,2013-05-13 06:10:00,
2013-05-13 02:15:00,59.9,52.0,29.96,SSE,157,0.0,0.0,75,0.00,,---,0.00,VWS V14.01,2013-05-13 06:15:00,
2013-05-13 02:20:00,59.7,51.8,29.96,SSW,195,0.0,0.0,75,0.00,,---,0.00,VWS V14.01,2013-05-13 06:20:00,
2013-05-13 02:25:00,59.6,52.0,29.96,SW,223,0.0,0.0,76,0.00,,---,0.00,VWS V14.01,2013-05-13 06:25:00,
2013-05-13 02:30:00,59.5,51.9,29.96,SW,223,0.0,0.0,76,0.00,,---,0.00,VWS V14.01,2013-05-13 06:30:00,
2013-05-13 02:35:00,59.4,51.8,29.96,WSW,257,0.0,1.0,76,0.00,,---,0.00,VWS V14.01,2013-05-13 06:35:00,
2013-05-13 02:40:00,59.3,51.8,29.97,NW,320,0.0,1.0,76,0.00,,---,0.00,VWS V14.01,2013-05-13 06:40:00,
2013-05-13 02:45:00,59.2,51.7,29.97,SSW,213,0.0,1.0,76,0.00,,---,0.00,VWS V14.01,2013-05-13 06:45:00,
2013-05-13 02:50:00,59.0,51.5,29.97,WSW,240,0.0,1.0,76,0.00,,---,0.00,VWS V14.01,2013-05-13 06:50:00,
2013-05-13 02:55:00,58.8,51.3,29.97,SSE,153,0.0,2.0,76,0.00,,---,0.00,VWS V14.01,2013-05-13 06:55:00,
2013-05-13 03:00:00,58.7,51.5,29.97,SSE,159,0.0,1.0,77,0.00,,---,0.00,VWS V14.01,2013-05-13 07:00:00,
2013-05-13 03:05:00,58.7,51.5,29.97,SW,232,1.0,2.0,77,0.00,,---,0.00,VWS V14.01,2013-05-13 07:05:00,
2013-05-13 03:10:00,58.5,51.3,29.97,SW,226,0.0,2.0,77,0.00,,---,0.00,VWS V14.01,2013-05-13 07:10:00,
2013-05-13 03:15:00,58.5,51.3,29.97,SSW,206,0.0,2.0,77,0.00,,---,0.00,VWS V14.01,2013-05-13 07:15:00,
2013-05-13 03:20:00,58.4,51.2,29.97,SSE,157,1.0,2.0,77,0.00,,---,0.00,VWS V14.01,2013-05-13 07:20:00,
2013-05-13 03:25:00,58.3,51.1,29.97,WSW,246,0.0,2.0,77,0.00,,---,0.00,VWS V14.01,2013-05-13 07:25:00,
2013-05-13 03:30:00,58.2,51.0,29.97,ENE,74,0.0,2.0,77,0.00,,---,0.00,VWS V14.01,2013-05-13 07:30:00,
2013-05-13 03:35:00,58.0,50.8,29.97,SE,136,1.0,1.0,77,0.00,,---,0.00,VWS V14.01,2013-05-13 07:35:00,
2013-05-13 03:40:00,57.9,50.7,29.97,South,173,0.0,1.0,77,0.00,,---,0.00,VWS V14.01,2013-05-13 07:40:00,
2013-05-13 03:45:00,58.0,50.8,29.97,SSE,148,0.0,1.0,77,0.00,,---,0.00,VWS V14.01,2013-05-13 07:45:00,
2013-05-13 03:50:00,57.9,50.4,29.98,WSW,238,1.0,1.0,76,0.00,,---,0.00,VWS V14.01,2013-05-13 07:50:00,
2013-05-13 03:55:00,57.9,50.4,29.98,WSW,246,1.0,2.0,76,0.00,,---,0.00,VWS V14.01,2013-05-13 07:55:00,
2013-05-13 04:00:00,57.9,50.0,29.98,ESE,123,1.0,2.0,75,0.00,,---,0.00,VWS V14.01,2013-05-13 08:00:00,
2013-05-13 04:05:00,57.8,49.6,29.98,SSW,205,0.0,2.0,74,0.00,,---,0.00,VWS V14.01,2013-05-13 08:05:00,
2013-05-13 04:10:00,57.7,49.5,29.98,SW,218,0.0,2.0,74,0.00,,---,0.00,VWS V14.01,2013-05-13 08:10:00,
2013-05-13 04:15:00,57.5,48.9,29.98,West,276,0.0,2.0,73,0.00,,---,0.00,VWS V14.01,2013-05-13 08:15:00,
2013-05-13 04:20:00,57.4,48.8,29.98,SSW,205,0.0,2.0,73,0.00,,---,0.00,VWS V14.01,2013-05-13 08:20:00,
2013-05-13 04:25:00,57.2,48.6,29.99,SSW,203,0.0,2.0,73,0.00,,---,0.00,VWS V14.01,2013-05-13 08:25:00,
2013-05-13 04:30:00,56.9,48.7,29.99,WSW,246,0.0,2.0,74,0.00,,---,0.00,VWS V14.01,2013-05-13 08:30:00,
2013-05-13 04:35:00,56.7,48.5,29.99,SSW,192,1.0,2.0,74,0.00,,---,0.00,VWS V14.01,2013-05-13 08:35:00,
2013-05-13 04:40:00,56.8,48.6,29.99,SE,136,1.0,3.0,74,0.00,,---,0.00,VWS V14.01,2013-05-13 08:40:00,
2013-05-13 04:45:00,57.4,47.3,29.99,SSE,158,1.0,3.0,69,0.00,,---,0.00,VWS V14.01,2013-05-13 08:45:00,
2013-05-13 04:50:00,57.6,47.9,29.99,SE,133,0.0,3.0,70,0.00,,---,0.00,VWS V14.01,2013-05-13 08:50:00,
2013-05-13 04:55:00,57.5,47.4,29.99,SSW,198,0.0,3.0,69,0.00,,---,0.00,VWS V14.01,2013-05-13 08:55:00,
2013-05-13 05:00:00,57.5,46.6,29.99,SW,214,1.0,3.0,67,0.00,,---,0.00,VWS V14.01,2013-05-13 09:00:00,
2013-05-13 05:05:00,57.4,46.5,30.00,East,95,0.0,1.0,67,0.00,,---,0.00,VWS V14.01,2013-05-13 09:05:00,
2013-05-13 05:10:00,57.2,46.8,30.00,SSW,194,0.0,2.0,68,0.00,,---,0.00,VWS V14.01,2013-05-13 09:10:00,
2013-05-13 05:15:00,57.0,46.2,29.99,South,184,1.0,3.0,67,0.00,,---,0.00,VWS V14.01,2013-05-13 09:15:00,
2013-05-13 05:20:00,56.9,46.5,30.00,SSW,198,0.0,3.0,68,0.00,,---,0.00,VWS V14.01,2013-05-13 09:20:00,
2013-05-13 05:25:00,57.1,46.3,30.00,SW,225,0.0,3.0,67,0.00,,---,0.00,VWS V14.01,2013-05-13 09:25:00,
2013-05-13 05:30:00,57.4,46.2,29.99,East,96,1.0,4.0,66,0.00,,---,0.00,VWS V14.01,2013-05-13 09:30:00,
2013-05-13 05:35:00,57.5,45.8,30.00,ENE,61,1.0,2.0,65,0.00,,---,0.00,VWS V14.01,2013-05-13 09:35:00,
2013-05-13 05:40:00,57.2,45.6,30.00,ESE,118,1.0,3.0,65,0.00,,---,0.00,VWS V14.01,2013-05-13 09:40:00,
2013-05-13 05:45:00,56.9,45.3,30.00,SSE,159,0.0,3.0,65,0.00,,---,0.00,VWS V14.01,2013-05-13 09:45:00,
2013-05-13 05:50:00,56.7,45.1,30.00,SSW,199,0.0,3.0,65,0.00,,---,0.00,VWS V14.01,2013-05-13 09:50:00,
2013-05-13 05:55:00,56.6,45.0,30.00,SE,135,1.0,3.0,65,0.00,,---,0.00,VWS V14.01,2013-05-13 09:55:00,
2013-05-13 06:00:00,56.6,45.0,30.00,North,360,0.0,4.0,65,0.00,,---,0.00,VWS V14.01,2013-05-13 10:00:00,
2013-05-13 06:05:00,56.6,45.4,30.00,SE,126,0.0,3.0,66,0.00,,---,0.00,VWS V14.01,2013-05-13 10:05:00,
2013-05-13 06:10:00,56.4,44.8,30.01,SE,130,1.0,4.0,65,0.00,,---,0.00,VWS V14.01,2013-05-13 10:10:00,
2013-05-13 06:15:00,56.3,44.7,30.01,SSW,209,0.0,4.0,65,0.00,,---,0.00,VWS V14.01,2013-05-13 10:15:00,
2013-05-13 06:20:00,56.1,44.9,30.01,ESE,118,1.0,4.0,66,0.00,,---,0.00,VWS V14.01,2013-05-13 10:20:00,
2013-05-13 06:25:00,56.0,44.4,30.01,WSW,242,0.0,5.0,65,0.00,,---,0.00,VWS V14.01,2013-05-13 10:25:00,
2013-05-13 06:30:00,56.1,44.5,30.02,East,86,1.0,5.0,65,0.00,,---,0.00,VWS V14.01,2013-05-13 10:30:00,
2013-05-13 06:35:00,56.2,44.6,30.02,SW,234,1.0,3.0,65,0.00,,---,0.00,VWS V14.01,2013-05-13 10:35:00,
2013-05-13 06:40:00,56.2,44.2,30.02,SW,215,0.0,3.0,64,0.00,,---,0.00,VWS V14.01,2013-05-13 10:40:00,
2013-05-13 06:45:00,56.1,44.1,30.02,SE,146,0.0,3.0,64,0.00,,---,0.00,VWS V14.01,2013-05-13 10:45:00,
2013-05-13 06:50:00,56.3,44.3,30.02,West,273,0.0,3.0,64,0.00,,---,0.00,VWS V14.01,2013-05-13 10:50:00,
2013-05-13 06:55:00,56.3,43.9,30.02,SE,130,0.0,3.0,63,0.00,,---,0.00,VWS V14.01,2013-05-13 10:55:00,
2013-05-13 07:00:00,56.3,44.3,30.02,SE,140,1.0,3.0,64,0.00,,---,0.00,VWS V14.01,2013-05-13 11:00:00,
2013-05-13 07:05:00,56.4,44.0,30.03,ESE,122,2.0,3.0,63,0.00,,---,0.00,VWS V14.01,2013-05-13 11:05:00,
2013-05-13 07:10:00,56.5,44.5,30.03,SW,221,1.0,3.0,64,0.00,,---,0.00,VWS V14.01,2013-05-13 11:10:00,
2013-05-13 07:15:00,56.6,43.8,30.02,SW,216,0.0,4.0,62,0.00,,---,0.00,VWS V14.01,2013-05-13 11:15:00,
2013-05-13 07:20:00,56.7,43.8,30.03,ESE,120,0.0,4.0,62,0.00,,---,0.00,VWS V14.01,2013-05-13 11:20:00,
2013-05-13 07:25:00,56.8,43.5,30.03,SE,133,1.0,6.0,61,0.00,,---,0.00,VWS V14.01,2013-05-13 11:25:00,
2013-05-13 07:30:00,56.8,43.9,30.03,SW,225,1.0,6.0,62,0.00,,---,0.00,VWS V14.01,2013-05-13 11:30:00,
2013-05-13 07:35:00,56.9,44.0,30.03,SE,141,2.0,4.0,62,0.00,,---,0.00,VWS V14.01,2013-05-13 11:35:00,
2013-05-13 07:40:00,56.9,43.2,30.03,SW,221,2.0,5.0,60,0.00,,---,0.00,VWS V14.01,2013-05-13 11:40:00,
2013-05-13 07:45:00,57.0,43.3,30.03,SW,223,1.0,5.0,60,0.00,,---,0.00,VWS V14.01,2013-05-13 11:45:00,
2013-05-13 07:50:00,57.1,43.4,30.03,SSW,206,2.0,5.0,60,0.00,,---,0.00,VWS V14.01,2013-05-13 11:50:00,
2013-05-13 07:55:00,57.4,43.6,30.03,ENE,66,3.0,5.0,60,0.00,,---,0.00,VWS V14.01,2013-05-13 11:55:00,
2013-05-13 07:59:00,57.9,44.1,30.04,NE,43,2.0,5.0,60,0.00,,---,0.00,VWS V14.01,2013-05-13 11:59:00,
2013-05-13 08:00:00,57.5,46.6,29.99,SW,214,0.0,3.0,67,0.00,,---,0.00,VWS V14.01,2013-05-13 12:00:00,
2013-05-13 08:04:00,58.4,43.2,30.04,ESE,105,1.0,4.0,57,0.00,,---,0.00,VWS V14.01,2013-05-13 12:04:00,
2013-05-13 08:09:00,59.2,43.1,30.04,NE,40,1.0,4.0,55,0.00,,---,0.00,VWS V14.01,2013-05-13 12:09:00,
2013-05-13 08:14:00,59.7,43.0,30.05,SW,219,1.0,4.0,54,0.00,,---,0.00,VWS V14.01,2013-05-13 12:14:00,
2013-05-13 08:19:00,59.8,43.6,30.05,SW,221,6.0,6.0,55,0.00,,---,0.00,VWS V14.01,2013-05-13 12:19:00,
2013-05-13 08:24:00,59.7,43.5,30.05,West,277,2.0,6.0,55,0.00,,---,0.00,VWS V14.01,2013-05-13 12:24:00,
2013-05-13 08:29:00,59.7,42.6,30.05,SW,223,2.0,6.0,53,0.00,,---,0.00,VWS V14.01,2013-05-13 12:29:00,
2013-05-13 08:30:00,57.4,46.2,29.99,ESE,123,1.0,4.0,66,0.00,,---,0.00,VWS V14.01,2013-05-13 12:30:00,
2013-05-13 08:34:00,59.9,43.7,30.06,ESE,117,0.0,3.0,55,0.00,,---,0.00,VWS V14.01,2013-05-13 12:34:00,
2013-05-13 08:39:00,60.1,43.9,30.06,SE,137,0.0,3.0,55,0.00,,---,0.00,VWS V14.01,2013-05-13 12:39:00,
2013-05-13 08:44:00,60.6,42.9,30.06,SE,144,3.0,4.0,52,0.00,,---,0.00,VWS V14.01,2013-05-13 12:44:00,
2013-05-13 08:49:00,61.1,43.9,30.06,West,260,1.0,4.0,53,0.00,,---,0.00,VWS V14.01,2013-05-13 12:49:00,
2013-05-13 08:54:00,61.5,43.2,30.06,ESE,109,1.0,4.0,51,0.00,,---,0.00,VWS V14.01,2013-05-13 12:54:00,
2013-05-13 08:59:00,61.9,44.6,30.06,West,279,2.0,4.0,53,0.00,,---,0.00,VWS V14.01,2013-05-13 12:59:00,
2013-05-13 09:00:00,56.6,45.0,30.00,South,182,0.0,4.0,65,0.00,,---,0.00,VWS V14.01,2013-05-13 13:00:00,
2013-05-13 09:04:00,62.1,42.7,30.07,South,187,1.0,3.0,49,0.00,,---,0.00,VWS V14.01,2013-05-13 13:04:00,
2013-05-13 09:30:00,56.1,44.5,30.02,WSW,256,1.0,5.0,65,0.00,,---,0.00,VWS V14.01,2013-05-13 13:30:00,
2013-05-13 10:00:00,56.3,44.3,30.02,SW,223,3.0,3.0,64,0.00,,---,0.00,VWS V14.01,2013-05-13 14:00:00,
2013-05-13 10:30:00,56.8,43.9,30.03,SW,223,0.0,6.0,62,0.00,,---,0.00,VWS V14.01,2013-05-13 14:30:00,
2013-05-13 10:48:00,66.9,46.0,30.08,ENE,76,2.0,2.0,47,0.00,,---,0.00,VWS V14.01,2013-05-13 14:48:00,
2013-05-13 10:53:00,67.4,46.5,30.08,SW,227,2.0,9.0,47,0.00,,---,0.00,VWS V14.01,2013-05-13 14:53:00,
2013-05-13 10:58:00,67.5,44.2,30.08,SW,233,3.0,9.0,43,0.00,,---,0.00,VWS V14.01,2013-05-13 14:58:00,
2013-05-13 11:00:00,58.0,44.2,30.04,SE,140,1.0,5.0,60,0.00,,---,0.00,VWS V14.01,2013-05-13 15:00:00,
2013-05-13 11:03:00,67.4,44.2,30.08,WNW,285,2.0,10.0,43,0.00,,---,0.00,VWS V14.01,2013-05-13 15:03:00,
2013-05-13 11:08:00,67.5,45.4,30.08,SSE,164,0.0,10.0,45,0.00,,---,0.00,VWS V14.01,2013-05-13 15:08:00,
2013-05-13 11:13:00,68.4,46.2,30.08,SW,232,3.0,10.0,45,0.00,,---,0.00,VWS V14.01,2013-05-13 15:13:00,
2013-05-13 11:18:00,68.7,45.9,30.08,WSW,244,4.0,10.0,44,0.00,,---,0.00,VWS V14.01,2013-05-13 15:18:00,
2013-05-13 11:30:00,59.7,42.1,30.05,ESE,105,2.0,6.0,52,0.00,,---,0.00,VWS V14.01,2013-05-13 15:30:00,
2013-05-13 12:00:00,62.0,44.7,30.06,SE,134,1.0,4.0,53,0.00,,---,0.00,VWS V14.01,2013-05-13 16:00:00,
2013-05-13 12:30:00,63.6,41.9,30.07,SE,133,2.0,6.0,45,0.00,,---,0.00,VWS V14.01,2013-05-13 16:30:00,
2013-05-13 13:00:00,63.6,44.1,30.08,SW,227,2.0,6.0,49,0.00,,---,0.00,VWS V14.01,2013-05-13 17:00:00,
2013-05-13 13:30:00,65.6,45.4,30.08,South,176,2.0,6.0,48,0.00,,---,0.00,VWS V14.01,2013-05-13 17:30:00,
2013-05-13 14:00:00,67.5,44.2,30.08,SW,222,0.0,9.0,43,0.00,,---,0.00,VWS V14.01,2013-05-13 18:00:00,
2013-05-13 14:05:00,69.9,43.2,30.05,NW,317,3.0,3.0,38,0.00,,---,0.00,VWS V14.01,2013-05-13 18:05:00,
2013-05-13 14:10:00,70.0,43.2,30.05,NNW,327,1.0,10.0,38,0.00,,---,0.00,VWS V14.01,2013-05-13 18:10:00,
2013-05-13 14:15:00,70.7,45.2,30.05,SW,217,0.0,10.0,40,0.00,,---,0.00,VWS V14.01,2013-05-13 18:15:00,
2013-05-13 14:20:00,71.1,43.5,30.05,West,281,2.0,10.0,37,0.00,,---,0.00,VWS V14.01,2013-05-13 18:20:00,
2013-05-13 14:30:00,68.6,44.6,30.09,SE,136,2.0,10.0,42,0.00,,---,0.00,VWS V14.01,2013-05-13 18:30:00,
2013-05-13 15:00:00,69.5,45.4,30.08,South,169,2.0,7.0,42,0.00,,---,0.00,VWS V14.01,2013-05-13 19:00:00,
2013-05-13 15:08:00,71.2,42.9,30.04,NW,307,1.0,1.0,36,0.00,,---,0.00,VWS V14.01,2013-05-13 19:08:00,
2013-05-13 15:13:00,71.1,42.1,30.04,WNW,296,5.0,12.0,35,0.00,,---,0.00,VWS V14.01,2013-05-13 19:13:00,
2013-05-13 15:18:00,71.0,41.2,30.04,NW,306,6.0,13.0,34,0.00,,---,0.00,VWS V14.01,2013-05-13 19:18:00,
2013-05-13 15:23:00,71.3,42.3,30.04,NW,313,2.0,13.0,35,0.00,,---,0.00,VWS V14.01,2013-05-13 19:23:00,
2013-05-13 15:28:00,71.9,42.8,30.03,WNW,288,4.0,13.0,35,0.00,,---,0.00,VWS V14.01,2013-05-13 19:28:00,
2013-05-13 15:30:00,70.9,47.9,30.08,West,279,1.0,7.0,44,0.00,,---,0.00,VWS V14.01,2013-05-13 19:30:00,
2013-05-13 15:33:00,71.7,43.3,30.03,NW,319,4.0,7.0,36,0.00,,---,0.00,VWS V14.01,2013-05-13 19:33:00,
2013-05-13 15:38:00,71.4,42.3,30.03,WNW,293,6.0,11.0,35,0.00,,---,0.00,VWS V14.01,2013-05-13 19:38:00,
2013-05-13 16:00:00,71.6,45.4,30.07,NW,304,1.0,6.0,39,0.00,,---,0.00,VWS V14.01,2013-05-13 20:00:00,
2013-05-13 16:30:00,70.0,43.9,30.06,NW,308,3.0,14.0,39,0.00,,---,0.00,VWS V14.01,2013-05-13 20:30:00,
2013-05-13 17:00:00,71.4,42.3,30.01,NNW,331,5.0,14.0,35,0.00,,---,0.00,VWS V14.01,2013-05-13 21:00:00,
2013-05-13 17:30:00,70.7,43.9,30.05,WNW,300,3.0,13.0,38,0.00,,---,0.00,VWS V14.01,2013-05-13 21:30:00,
2013-05-13 18:00:00,71.5,43.9,30.04,WNW,294,1.0,15.0,37,0.00,,---,0.00,VWS V14.01,2013-05-13 22:00:00,
2013-05-13 18:30:00,71.7,42.6,30.03,West,280,3.0,13.0,35,0.00,,---,0.00,VWS V14.01,2013-05-13 22:30:00,
2013-05-13 18:53:00,70.8,42.5,30.01,WNW,298,3.0,3.0,36,0.00,,---,0.00,VWS V14.01,2013-05-13 22:53:00,
2013-05-13 18:58:00,70.7,43.2,30.01,WNW,297,1.0,3.0,37,0.00,,---,0.00,VWS V14.01,2013-05-13 22:58:00,
2013-05-13 19:00:00,71.6,42.5,30.02,WNW,303,11.0,15.0,35,0.00,,---,0.00,VWS V14.01,2013-05-13 23:00:00,
2013-05-13 19:03:00,70.6,43.1,30.01,WNW,292,3.0,4.0,37,0.00,,---,0.00,VWS V14.01,2013-05-13 23:03:00,
2013-05-13 19:08:00,70.5,42.3,30.01,WNW,300,3.0,6.0,36,0.00,,---,0.00,VWS V14.01,2013-05-13 23:08:00,
2013-05-13 19:13:00,70.4,42.2,30.01,WNW,296,3.0,7.0,36,0.00,,---,0.00,VWS V14.01,2013-05-13 23:13:00,
2013-05-13 19:18:00,70.3,42.1,30.01,WNW,299,2.0,7.0,36,0.00,,---,0.00,VWS V14.01,2013-05-13 23:18:00,
2013-05-13 19:23:00,70.1,41.9,30.02,WNW,296,3.0,7.0,36,0.00,,---,0.00,VWS V14.01,2013-05-13 23:23:00,
2013-05-13 19:28:00,69.9,42.5,30.02,NW,320,6.0,7.0,37,0.00,,---,0.00,VWS V14.01,2013-05-13 23:28:00,
2013-05-13 19:30:00,71.4,42.3,30.01,WNW,292,5.0,14.0,35,0.00,,---,0.00,VWS V14.01,2013-05-13 23:30:00,
2013-05-13 19:33:00,69.8,42.4,30.02,WNW,300,1.0,5.0,37,0.00,,---,0.00,VWS V14.01,2013-05-13 23:33:00,
2013-05-13 19:38:00,69.7,42.3,30.02,WNW,295,3.0,5.0,37,0.00,,---,0.00,VWS V14.01,2013-05-13 23:38:00,
2013-05-13 19:44:00,69.4,43.4,30.03,WNW,295,0.0,0.0,39,0.00,,---,0.00,VWS V14.01,2013-05-13 23:44:00,
2013-05-13 19:49:00,69.1,43.1,30.03,NW,304,0.0,5.0,39,0.00,,---,0.00,VWS V14.01,2013-05-13 23:49:00,
2013-05-13 19:54:00,68.2,42.3,30.03,WSW,249,2.0,5.0,39,0.00,,---,0.00,VWS V14.01,2013-05-13 23:54:00,
2013-05-13 19:59:00,67.3,42.8,30.04,WNW,300,1.0,5.0,41,0.00,,---,0.00,VWS V14.01,2013-05-13 23:59:00,
2013-05-13 20:00:00,71.4,42.3,30.01,NNW,331,5.0,14.0,35,0.00,,---,0.00,VWS V14.01,2013-05-14 00:00:00,
2013-05-13 20:04:00,66.6,42.2,30.04,WNW,288,0.0,2.0,41,0.00,,---,0.00,VWS V14.01,2013-05-14 00:04:00,
2013-05-13 20:09:00,65.8,42.7,30.04,West,274,0.0,2.0,43,0.00,,---,0.00,VWS V14.01,2013-05-14 00:09:00,
2013-05-13 20:14:00,64.9,43.1,30.04,WNW,283,1.0,2.0,45,0.00,,---,0.00,VWS V14.01,2013-05-14 00:14:00,
2013-05-13 20:19:00,64.4,42.0,30.05,NW,320,2.0,2.0,44,0.00,,---,0.00,VWS V14.01,2013-05-14 00:19:00,
2013-05-13 20:24:00,64.1,41.8,30.05,WNW,283,0.0,2.0,44,0.00,,---,0.00,VWS V14.01,2013-05-14 00:24:00,
2013-05-13 20:29:00,63.9,41.6,30.05,NW,305,0.0,2.0,44,0.00,,---,0.00,VWS V14.01,2013-05-14 00:29:00,
2013-05-13 20:30:00,71.5,41.7,30.00,WNW,298,5.0,12.0,34,0.00,,---,0.00,VWS V14.01,2013-05-14 00:30:00,
2013-05-13 20:34:00,63.6,41.3,30.05,NW,306,0.0,0.0,44,0.00,,---,0.00,VWS V14.01,2013-05-14 00:34:00,
2013-05-13 20:39:00,63.0,40.8,30.05,NW,306,0.0,0.0,44,0.00,,---,0.00,VWS V14.01,2013-05-14 00:39:00,
2013-05-13 20:44:00,62.5,40.3,30.06,NW,305,0.0,0.0,44,0.00,,---,0.00,VWS V14.01,2013-05-14 00:44:00,
2013-05-13 20:49:00,62.3,41.8,30.06,NW,306,0.0,0.0,47,0.00,,---,0.00,VWS V14.01,2013-05-14 00:49:00,
2013-05-13 20:54:00,61.9,42.0,30.07,NW,305,0.0,0.0,48,0.00,,---,0.00,VWS V14.01,2013-05-14 00:54:00,
2013-05-13 20:58:00,61.5,41.7,30.07,NE,47,0.0,1.0,48,0.00,,---,0.00,VWS V14.01,2013-05-14 00:58:00,
2013-05-13 21:00:00,71.5,40.9,30.00,NW,304,5.0,13.0,33,0.00,,---,0.00,VWS V14.01,2013-05-14 01:00:00,
2013-05-13 21:03:00,61.4,41.0,30.07,WNW,282,0.0,1.0,47,0.00,,---,0.00,VWS V14.01,2013-05-14 01:03:00,
2013-05-13 21:08:00,61.2,41.9,30.07,SW,222,0.0,1.0,49,0.00,,---,0.00,VWS V14.01,2013-05-14 01:08:00,
2013-05-13 21:13:00,60.9,41.6,30.07,North,11,0.0,1.0,49,0.00,,---,0.00,VWS V14.01,2013-05-14 01:13:00,
2013-05-13 21:24:00,60.5,41.8,30.08,WNW,295,1.0,1.0,50,0.00,,---,0.00,VWS V14.01,2013-05-14 01:24:00,
2013-05-13 21:29:00,60.4,41.7,30.08,WNW,295,0.0,1.0,50,0.00,,---,0.00,VWS V14.01,2013-05-14 01:29:00,
2013-05-13 21:30:00,70.8,41.1,30.01,West,281,2.0,12.0,34,0.00,,---,0.00,VWS V14.01,2013-05-14 01:30:00,
2013-05-13 21:34:00,60.1,41.4,30.08,WNW,295,0.0,0.0,50,0.00,,---,0.00,VWS V14.01,2013-05-14 01:34:00,
2013-05-13 21:39:00,59.8,41.1,30.08,WNW,295,0.0,0.0,50,0.00,,---,0.00,VWS V14.01,2013-05-14 01:39:00,
2013-05-13 21:44:00,59.5,40.9,30.08,WNW,295,0.0,0.0,50,0.00,,---,0.00,VWS V14.01,2013-05-14 01:44:00,
2013-05-13 21:49:00,59.3,41.2,30.09,WNW,295,0.0,0.0,51,0.00,,---,0.00,VWS V14.01,2013-05-14 01:49:00,
2013-05-13 21:54:00,58.8,42.2,30.09,WNW,295,0.0,0.0,54,0.00,,---,0.00,VWS V14.01,2013-05-14 01:54:00,
2013-05-13 21:59:00,58.2,42.1,30.09,WNW,295,0.0,0.0,55,0.00,,---,0.00,VWS V14.01,2013-05-14 01:59:00,
2013-05-13 22:00:00,70.7,42.5,30.01,WNW,300,4.0,5.0,36,0.00,,---,0.00,VWS V14.01,2013-05-14 02:00:00,
2013-05-13 22:04:00,57.9,41.8,30.10,WSW,250,0.0,1.0,55,0.00,,---,0.00,VWS V14.01,2013-05-14 02:04:00,
2013-05-13 22:09:00,57.8,43.6,30.10,SSW,211,0.0,1.0,59,0.00,,---,0.00,VWS V14.01,2013-05-14 02:09:00,
2013-05-13 22:14:00,57.6,44.3,30.10,SSW,211,0.0,1.0,61,0.00,,---,0.00,VWS V14.01,2013-05-14 02:14:00,
2013-05-13 22:19:00,57.5,45.4,30.10,SSW,211,0.0,1.0,64,0.00,,---,0.00,VWS V14.01,2013-05-14 02:19:00,
2013-05-13 22:24:00,57.0,45.0,30.10,SSW,211,0.0,1.0,64,0.00,,---,0.00,VWS V14.01,2013-05-14 02:24:00,
2013-05-13 22:29:00,56.7,44.7,30.10,SSW,211,0.0,1.0,64,0.00,,---,0.00,VWS V14.01,2013-05-14 02:29:00,
2013-05-13 22:30:00,69.9,42.5,30.02,WNW,298,2.0,7.0,37,0.00,,---,0.00,VWS V14.01,2013-05-14 02:30:00,
2013-05-13 22:34:00,56.4,44.4,30.10,SSW,211,0.0,0.0,64,0.00,,---,0.00,VWS V14.01,2013-05-14 02:34:00,
2013-05-13 22:39:00,56.1,44.1,30.10,SSW,211,0.0,1.0,64,0.00,,---,0.00,VWS V14.01,2013-05-14 02:39:00,
2013-05-13 22:44:00,56.1,44.5,30.11,SSW,211,0.0,1.0,65,0.00,,---,0.00,VWS V14.01,2013-05-14 02:44:00,
2013-05-13 22:49:00,55.9,44.3,30.11,SSW,211,0.0,1.0,65,0.00,,---,0.00,VWS V14.01,2013-05-14 02:49:00,
2013-05-13 22:54:00,56.1,45.7,30.11,SSW,211,0.0,1.0,68,0.00,,---,0.00,VWS V14.01,2013-05-14 02:54:00,
2013-05-13 22:59:00,56.0,46.0,30.11,SSW,211,0.0,1.0,69,0.00,,---,0.00,VWS V14.01,2013-05-14 02:59:00,
2013-05-13 23:00:00,67.0,42.5,30.04,WNW,296,2.0,5.0,41,0.00,,---,0.00,VWS V14.01,2013-05-14 03:00:00,
2013-05-13 23:04:00,55.6,45.2,30.11,SSW,211,0.0,0.0,68,0.00,,---,0.00,VWS V14.01,2013-05-14 03:04:00,
2013-05-13 23:09:00,55.0,45.0,30.11,SSW,211,0.0,0.0,69,0.00,,---,0.00,VWS V14.01,2013-05-14 03:09:00,
2013-05-13 23:14:00,54.6,45.4,30.11,SSW,211,0.0,0.0,71,0.00,,---,0.00,VWS V14.01,2013-05-14 03:14:00,
2013-05-13 23:19:00,54.5,46.4,30.12,SSW,211,0.0,0.0,74,0.00,,---,0.00,VWS V14.01,2013-05-14 03:19:00,
2013-05-13 23:24:00,54.7,46.6,30.11,SSW,211,0.0,0.0,74,0.00,,---,0.00,VWS V14.01,2013-05-14 03:24:00,
2013-05-13 23:29:00,54.4,45.9,30.12,SSW,211,0.0,0.0,73,0.00,,---,0.00,VWS V14.01,2013-05-14 03:29:00,
2013-05-13 23:30:00,63.8,40.9,30.05,NW,305,0.0,2.0,43,0.00,,---,0.00,VWS V14.01,2013-05-14 03:30:00,
2013-05-13 23:34:00,54.2,45.4,30.12,SSW,211,0.0,0.0,72,0.00,,---,0.00,VWS V14.01,2013-05-14 03:34:00,
2013-05-13 23:39:00,53.9,45.5,30.12,SSW,211,0.0,0.0,73,0.00,,---,0.00,VWS V14.01,2013-05-14 03:39:00,
2013-05-13 23:44:00,53.6,45.5,30.11,SSW,211,0.0,0.0,74,0.00,,---,0.00,VWS V14.01,2013-05-14 03:44:00,
2013-05-13 23:49:00,53.8,46.4,30.11,SSW,211,0.0,0.0,76,0.00,,---,0.00,VWS V14.01,2013-05-14 03:49:00,
2013-05-13 23:54:00,54.3,47.2,30.11,SSW,211,0.0,0.0,77,0.00,,---,0.00,VWS V14.01,2013-05-14 03:54:00,
2013-05-13 23:59:00,54.3,46.9,30.12,SSW,211,0.0,0.0,76,0.00,,---,0.00,VWS V14.01,2013-05-14 03:59:00,